createdAt,value
2023-05-22T00:00:52.749Z,8.18
2023-05-22T00:03:20.521Z,7.70
2023-05-22T00:05:48.512Z,8.13
2023-05-22T00:08:16.132Z,7.60
2023-05-22T00:10:45.512Z,8.63
2023-05-22T00:13:13.599Z,7.97
2023-05-22T00:15:41.331Z,8.00
2023-05-22T00:18:11.158Z,8.55
2023-05-22T00:20:39.669Z,7.85
2023-05-22T00:23:10.447Z,8.38
2023-05-22T00:25:38.951Z,7.55
2023-05-22T00:28:08.160Z,8.48
2023-05-22T00:30:35.883Z,7.97
2023-05-22T00:33:04.896Z,8.50
2023-05-22T00:35:34.215Z,8.48
2023-05-22T00:38:07.736Z,7.93
2023-05-22T00:40:35.642Z,8.48
2023-05-22T00:43:08.398Z,8.20
2023-05-22T00:45:37.939Z,8.27
2023-05-22T00:48:06.152Z,7.88
2023-05-22T00:50:34.043Z,9.07
2023-05-22T00:53:02.362Z,8.13
2023-05-22T00:55:30.062Z,8.77
2023-05-22T00:57:59.837Z,8.93
2023-05-22T01:00:27.645Z,8.18
2023-05-22T01:02:56.882Z,8.48
2023-05-22T01:05:25.620Z,9.32
2023-05-22T01:07:54.118Z,9.07
2023-05-22T01:10:24.580Z,8.98
2023-05-22T01:13:03.843Z,8.60
2023-05-22T01:15:37.572Z,8.65
2023-05-22T01:18:19.790Z,7.55
2023-05-22T01:20:54.001Z,7.88
2023-05-22T01:23:55.232Z,8.20
2023-05-22T01:26:41.987Z,7.85
2023-05-22T01:29:23.690Z,7.88
2023-05-22T01:31:58.617Z,7.70
2023-05-22T01:34:28.121Z,8.00
2023-05-22T01:36:56.993Z,8.77
2023-05-22T01:39:26.635Z,8.52
2023-05-22T01:41:54.611Z,8.30
2023-05-22T01:44:23.696Z,8.68
2023-05-22T01:46:53.260Z,8.35
2023-05-22T01:49:21.193Z,8.05
2023-05-22T01:51:54.357Z,8.80
2023-05-22T01:54:28.735Z,9.05
2023-05-22T01:57:03.075Z,8.35
2023-05-22T01:59:36.601Z,9.00
2023-05-22T02:02:09.023Z,9.32
2023-05-22T02:07:09.611Z,10.27
2023-05-22T02:09:53.913Z,10.68
2023-05-22T02:12:22.589Z,10.32
2023-05-22T02:14:53.338Z,10.23
2023-05-22T02:17:23.339Z,10.05
2023-05-22T02:19:51.171Z,9.80
2023-05-22T02:22:20.774Z,10.27
2023-05-22T02:24:50.160Z,10.55
2023-05-22T02:27:17.949Z,9.68
2023-05-22T02:29:47.748Z,9.95
2023-05-22T02:32:15.539Z,10.52
2023-05-22T02:34:45.103Z,10.52
2023-05-22T02:37:16.061Z,10.70
2023-05-22T02:39:43.899Z,10.32
2023-05-22T02:42:11.616Z,9.57
2023-05-22T02:44:41.771Z,9.68
2023-05-22T02:47:10.622Z,9.48
2023-05-22T02:49:38.409Z,8.75
2023-05-22T02:52:08.093Z,8.85
2023-05-22T02:54:35.820Z,9.27
2023-05-22T02:57:04.162Z,9.40
2023-05-22T02:59:32.764Z,9.35
2023-05-22T03:02:00.584Z,8.88
2023-05-22T03:04:29.618Z,9.50
2023-05-22T03:06:57.457Z,9.45
2023-05-22T03:09:26.653Z,9.20
2023-05-22T03:11:54.416Z,9.82
2023-05-22T03:14:22.216Z,9.48
2023-05-22T03:16:49.954Z,9.32
2023-05-22T03:19:18.373Z,9.68
2023-05-22T03:21:48.572Z,9.52
2023-05-22T03:24:16.507Z,9.77
2023-05-22T03:26:45.748Z,9.70
2023-05-22T03:29:13.769Z,10.80
2023-05-22T03:31:41.699Z,8.93
2023-05-22T03:34:09.616Z,10.02
2023-05-22T03:36:38.038Z,9.52
2023-05-22T03:39:06.408Z,9.95
2023-05-22T03:41:34.129Z,9.13
2023-05-22T03:44:04.773Z,9.50
2023-05-22T03:46:32.652Z,9.60
2023-05-22T03:49:00.420Z,9.52
2023-05-22T03:51:28.378Z,9.18
2023-05-22T03:53:56.148Z,9.43
2023-05-22T03:56:23.936Z,9.55
2023-05-22T03:58:51.688Z,9.68
2023-05-22T04:01:21.071Z,8.85
2023-05-22T04:03:48.808Z,9.23
2023-05-22T04:06:17.816Z,8.82
2023-05-22T04:08:45.569Z,9.35
2023-05-22T04:11:26.450Z,9.45
2023-05-22T04:13:54.346Z,9.70
2023-05-22T04:16:23.739Z,9.93
2023-05-22T04:18:51.751Z,9.93
2023-05-22T04:29:44.588Z,9.70
2023-05-22T04:32:18.374Z,10.38
2023-05-22T04:34:49.394Z,9.07
2023-05-22T04:37:18.374Z,9.45
2023-05-22T04:39:46.687Z,9.93
2023-05-22T04:42:15.915Z,9.35
2023-05-22T04:45:02.318Z,10.18
2023-05-22T04:47:32.169Z,9.60
2023-05-22T04:50:00.354Z,10.27
2023-05-22T04:52:28.368Z,9.95
2023-05-22T04:54:58.814Z,9.70
2023-05-22T04:57:28.407Z,10.43
2023-05-22T04:59:57.202Z,10.73
2023-05-22T05:02:25.185Z,10.20
2023-05-22T05:32:01.411Z,11.00
2023-05-22T05:34:29.672Z,11.98
2023-05-22T05:36:58.580Z,12.18
2023-05-22T06:10:58.892Z,11.30
2023-05-22T06:14:10.877Z,12.32
2023-05-22T06:17:04.582Z,11.35
2023-05-22T06:19:32.784Z,11.60
2023-05-22T06:22:01.388Z,11.90
2023-05-22T06:24:29.697Z,11.80
2023-05-22T06:26:57.759Z,11.95
2023-05-22T06:29:25.760Z,10.77
2023-05-22T06:31:54.454Z,10.70
2023-05-22T06:34:23.980Z,11.25
2023-05-22T06:36:52.214Z,10.73
2023-05-22T06:39:20.181Z,10.95
2023-05-22T06:41:48.252Z,10.80
2023-05-22T06:44:31.362Z,10.55
2023-05-22T06:47:01.239Z,9.93
2023-05-22T06:49:30.779Z,10.07
2023-05-22T09:30:37.308Z,9.25
2023-05-22T09:33:05.149Z,9.05
2023-05-22T09:35:33.696Z,8.65
2023-05-22T09:38:01.614Z,8.07
2023-05-22T09:40:40.685Z,8.98
2023-05-22T09:43:12.127Z,8.48
2023-05-22T09:46:01.946Z,8.37
2023-05-22T09:48:29.989Z,7.80
2023-05-22T09:51:01.309Z,8.27
2023-05-22T09:53:29.996Z,7.77
2023-05-22T09:55:58.837Z,7.90
2023-05-22T09:58:35.675Z,8.20
2023-05-22T10:01:17.916Z,8.50
2023-05-22T10:06:24.493Z,8.75
2023-05-22T10:15:07.543Z,9.13
2023-05-22T10:17:38.004Z,6.78
2023-05-22T10:20:08.147Z,7.90
2023-05-22T10:22:37.648Z,7.88
2023-05-22T10:25:18.379Z,8.70
2023-05-22T10:27:46.688Z,8.20
2023-05-22T10:30:25.547Z,8.73
2023-05-22T10:33:00.992Z,7.97
2023-05-22T10:35:38.446Z,7.97
2023-05-22T10:38:59.407Z,8.68
2023-05-22T10:41:27.468Z,8.90
2023-05-22T10:43:57.791Z,8.52
2023-05-22T10:46:29.000Z,7.88
2023-05-22T10:49:01.783Z,8.27
2023-05-22T10:52:09.263Z,8.30
2023-05-22T10:54:42.607Z,9.00
2023-05-22T10:57:20.678Z,8.75
2023-05-22T10:59:51.511Z,8.50
2023-05-22T11:02:30.880Z,8.75
2023-05-22T11:05:55.623Z,8.57
2023-05-22T11:08:51.822Z,9.05
2023-05-22T11:11:31.322Z,9.20
2023-05-22T11:14:10.242Z,8.80
2023-05-22T11:16:39.637Z,9.02
2023-05-22T11:19:22.636Z,8.57
2023-05-22T11:21:51.910Z,8.25
2023-05-22T11:24:21.187Z,10.05
2023-05-22T11:27:02.728Z,9.93
2023-05-22T11:29:31.630Z,8.80
2023-05-22T11:32:12.009Z,9.23
2023-05-22T11:38:18.201Z,8.82
2023-05-22T11:40:47.282Z,8.63
2023-05-22T11:43:15.025Z,8.45
2023-05-22T11:45:43.165Z,9.73
2023-05-22T11:48:13.401Z,9.18
2023-05-22T11:50:44.539Z,8.75
2023-05-22T11:53:12.817Z,9.23
2023-05-22T11:55:41.289Z,8.60
2023-05-22T11:58:10.458Z,9.50
2023-05-22T12:00:39.123Z,9.40
2023-05-22T12:03:07.507Z,9.68
2023-05-22T12:05:35.652Z,9.73
2023-05-22T12:10:52.533Z,8.00
2023-05-22T12:13:31.018Z,8.35
2023-05-22T12:16:02.045Z,8.82
2023-05-22T12:18:37.810Z,8.93
2023-05-22T12:21:14.517Z,9.05
2023-05-22T12:23:50.188Z,8.98
2023-05-22T12:26:20.478Z,9.10
2023-05-22T12:28:53.767Z,8.13
2023-05-22T12:31:22.030Z,7.90
2023-05-22T12:33:50.202Z,8.07
2023-05-22T12:36:18.163Z,7.60
2023-05-22T12:38:46.556Z,7.68
2023-05-22T12:41:16.836Z,8.15
2023-05-22T12:43:45.208Z,7.65
2023-05-22T12:46:14.694Z,7.57
2023-05-22T12:48:42.595Z,6.45
2023-05-22T12:51:10.789Z,6.78
2023-05-22T12:53:39.840Z,6.90
2023-05-22T12:56:07.955Z,7.40
2023-05-22T12:58:38.901Z,7.80
2023-05-22T13:01:07.111Z,7.22
2023-05-22T13:03:36.901Z,7.30
2023-05-22T13:06:05.461Z,7.40
2023-05-22T13:08:42.341Z,7.20
2023-05-22T13:11:11.958Z,7.00
2023-05-22T13:13:40.197Z,7.00
2023-05-22T13:16:08.199Z,7.90
2023-05-22T13:19:28.063Z,7.80
2023-05-22T13:21:57.461Z,7.55
2023-05-22T13:24:25.543Z,7.57
2023-05-22T13:26:59.379Z,7.90
2023-05-22T13:29:34.614Z,8.18
2023-05-22T13:32:02.665Z,7.57
2023-05-22T13:34:30.629Z,8.23
2023-05-22T14:21:22.569Z,6.45
2023-05-22T14:23:50.401Z,6.55
2023-05-22T14:26:18.271Z,6.85
2023-05-22T14:28:46.573Z,7.13
2023-05-22T14:31:15.050Z,6.53
2023-05-22T14:33:42.809Z,6.85
2023-05-22T14:36:10.854Z,7.35
2023-05-22T14:38:40.490Z,6.53
2023-05-22T14:41:08.384Z,6.30
2023-05-22T14:43:38.187Z,6.32
2023-05-22T14:46:06.469Z,6.28
2023-05-22T14:48:34.760Z,6.32
2023-05-22T14:51:02.650Z,6.15
2023-05-22T14:53:32.622Z,6.60
2023-05-22T14:56:04.883Z,6.50
2023-05-22T14:58:37.765Z,6.50
2023-05-22T15:01:06.683Z,6.38
2023-05-22T15:03:36.368Z,6.47
2023-05-22T15:06:06.918Z,6.78
2023-05-22T15:08:36.661Z,6.47
2023-05-22T15:11:06.656Z,6.43
2023-05-22T15:13:34.536Z,6.78
2023-05-22T15:16:05.364Z,5.95
2023-05-22T15:18:41.361Z,6.90
2023-05-22T15:21:35.775Z,7.90
2023-05-22T15:24:11.565Z,7.65
2023-05-22T15:26:57.127Z,8.18
2023-05-22T15:30:14.981Z,7.93
2023-05-22T15:32:50.105Z,7.68
2023-05-22T15:47:11.900Z,8.37
2023-05-22T15:49:46.265Z,8.15
2023-05-22T15:52:18.340Z,9.10
2023-05-22T15:57:17.969Z,8.25
2023-05-22T15:59:47.426Z,8.65
2023-05-22T16:09:59.214Z,8.85
2023-05-22T16:12:27.108Z,8.55
2023-05-22T16:15:00.053Z,8.43
2023-05-22T16:17:28.623Z,8.85
2023-05-22T16:20:04.702Z,9.20
2023-05-22T16:22:47.351Z,8.15
2023-05-22T16:25:18.706Z,8.13
2023-05-22T16:27:47.029Z,7.97
2023-05-22T16:30:16.714Z,8.93
2023-05-22T16:32:46.910Z,8.60
2023-05-22T16:35:15.184Z,8.60
2023-05-22T16:37:46.544Z,7.90
2023-05-22T16:40:18.942Z,8.63
2023-05-22T16:42:47.908Z,8.45
2023-05-22T16:45:17.197Z,8.65
2023-05-22T16:47:45.248Z,8.48
2023-05-22T16:52:58.003Z,8.80
2023-05-22T16:55:29.565Z,8.77
2023-05-22T16:57:57.721Z,8.20
2023-05-22T17:00:29.647Z,8.35
2023-05-22T17:02:57.984Z,8.30
2023-05-22T17:05:28.076Z,8.38
2023-05-22T17:07:56.931Z,9.02
2023-05-22T17:10:29.254Z,8.45
2023-05-22T17:13:24.659Z,8.43
2023-05-22T17:15:55.492Z,8.60
2023-05-22T17:18:25.985Z,7.43
2023-05-22T17:21:00.482Z,7.90
2023-05-22T17:23:30.502Z,8.13
2023-05-22T17:26:01.236Z,7.72
2023-05-22T17:40:44.119Z,7.47
2023-05-22T17:44:09.224Z,7.13
2023-05-22T17:57:51.049Z,6.38
2023-05-22T18:00:32.892Z,7.75
2023-05-22T18:29:02.686Z,7.18
2023-05-22T18:31:30.978Z,7.70
2023-05-22T18:33:58.890Z,8.40
2023-05-22T18:36:27.512Z,8.20
2023-05-22T18:49:25.884Z,8.55
2023-05-22T18:51:53.989Z,8.63
2023-05-22T18:55:25.066Z,9.98
2023-05-22T18:57:53.227Z,9.50
2023-05-22T19:00:24.184Z,9.23
2023-05-22T19:02:52.444Z,10.82
2023-05-22T19:05:29.625Z,9.80
2023-05-22T19:08:16.490Z,10.13
2023-05-22T19:10:44.411Z,11.60
2023-05-22T19:13:16.555Z,11.32
2023-05-22T19:18:28.798Z,11.10
2023-05-22T19:21:10.078Z,11.10
2023-05-22T19:23:42.946Z,11.80
2023-05-22T19:26:11.329Z,11.13
2023-05-22T19:28:44.210Z,10.90
2023-05-22T19:31:12.131Z,11.07
2023-05-22T19:33:48.598Z,11.15
2023-05-22T19:36:18.357Z,10.60
2023-05-22T19:39:21.047Z,11.43
2023-05-22T19:41:55.676Z,11.57
2023-05-22T19:44:23.576Z,11.43
2023-05-22T19:46:58.989Z,10.85
2023-05-22T19:49:36.297Z,11.45
2023-05-22T19:52:06.726Z,12.57
2023-05-22T19:54:43.670Z,11.48
2023-05-22T19:57:11.860Z,12.00
2023-05-22T19:59:39.784Z,11.35
2023-05-22T20:02:08.584Z,11.77
2023-05-22T20:04:50.427Z,11.77
2023-05-22T20:07:19.779Z,11.13
2023-05-22T20:09:47.864Z,11.57
2023-05-22T20:12:17.556Z,11.45
2023-05-22T20:14:45.544Z,10.98
2023-05-22T20:17:13.825Z,11.98
2023-05-22T20:19:45.539Z,10.93
2023-05-22T20:22:13.615Z,12.10
2023-05-22T20:24:43.010Z,11.45
2023-05-22T20:27:11.090Z,11.73
2023-05-22T20:29:40.417Z,11.40
2023-05-22T20:32:08.820Z,11.55
2023-05-22T20:34:49.081Z,10.65
2023-05-22T20:37:16.984Z,11.27
2023-05-22T20:40:26.772Z,11.63
2023-05-22T20:45:55.508Z,12.00
2023-05-22T20:48:23.475Z,11.13
2023-05-22T20:50:52.380Z,11.65
2023-05-22T20:53:24.728Z,12.25
2023-05-22T20:58:32.675Z,11.52
2023-05-22T21:01:01.061Z,11.25
2023-05-22T21:03:28.898Z,12.00
2023-05-22T21:05:57.335Z,11.20
2023-05-22T21:08:25.503Z,11.23
2023-05-22T21:10:53.849Z,11.35
2023-05-22T21:16:14.907Z,11.77
2023-05-22T21:18:44.836Z,11.40
2023-05-22T21:21:13.982Z,11.95
2023-05-22T21:23:45.543Z,11.88
2023-05-22T21:26:13.604Z,11.35
2023-05-22T21:28:45.274Z,11.70
2023-05-22T21:31:15.537Z,11.43
2023-05-22T21:33:43.402Z,11.85
2023-05-22T21:36:11.322Z,11.93
2023-05-22T21:38:39.504Z,12.82
2023-05-22T21:41:19.526Z,11.30
2023-05-22T21:43:52.231Z,12.25
2023-05-22T21:46:22.682Z,11.83
2023-05-22T21:48:50.612Z,11.20
2023-05-22T21:51:19.093Z,11.32
2023-05-22T21:53:47.763Z,11.82
2023-05-22T21:56:15.730Z,11.85
2023-05-22T21:58:43.589Z,11.05
2023-05-22T22:01:12.900Z,10.95
2023-05-22T22:03:41.057Z,10.80
2023-05-22T22:06:09.407Z,11.07
2023-05-22T22:08:37.290Z,10.48
2023-05-22T22:11:05.224Z,11.15
2023-05-22T22:13:33.012Z,11.18
2023-05-22T22:16:03.839Z,11.45
2023-05-22T22:18:34.136Z,11.85
2023-05-22T22:21:04.644Z,11.73
2023-05-22T22:23:32.580Z,12.45
2023-05-22T22:26:00.473Z,12.43
2023-05-22T22:28:29.196Z,12.27
2023-05-22T22:30:57.438Z,10.85
2023-05-22T22:33:25.648Z,12.07
2023-05-22T22:35:56.370Z,11.95
2023-05-22T22:38:24.229Z,12.30
2023-05-22T22:40:53.731Z,11.32
2023-05-22T22:43:21.518Z,11.63
2023-05-22T22:45:51.991Z,11.35
2023-05-22T22:48:22.527Z,12.10
2023-05-22T22:50:52.475Z,11.95
2023-05-22T22:53:21.771Z,11.30
2023-05-22T22:55:50.043Z,12.32
2023-05-22T22:58:18.966Z,11.73
2023-05-22T23:00:46.872Z,11.60
2023-05-22T23:03:16.614Z,11.20
2023-05-22T23:05:44.849Z,11.00
2023-05-22T23:08:13.190Z,11.20
2023-05-22T23:11:02.139Z,11.40
2023-05-22T23:13:30.051Z,11.48
2023-05-22T23:15:57.987Z,11.63
2023-05-22T23:18:26.105Z,12.43
2023-05-22T23:20:56.487Z,11.30
2023-05-22T23:23:24.262Z,11.57
2023-05-22T23:25:52.475Z,10.30
2023-05-22T23:28:21.870Z,11.35
2023-05-22T23:30:49.750Z,10.63
2023-05-22T23:33:18.809Z,10.45
2023-05-22T23:35:49.305Z,11.05
2023-05-22T23:38:17.519Z,10.82
2023-05-22T23:40:45.342Z,11.15
2023-05-22T23:43:13.420Z,11.10
2023-05-22T23:45:42.833Z,11.15
2023-05-22T23:48:11.307Z,10.85
2023-05-22T23:50:39.117Z,11.35
2023-05-22T23:53:07.068Z,11.05
2023-05-22T23:55:44.412Z,10.68
2023-05-22T23:58:12.379Z,11.75
